Time;durP1;ratioP1;P1;durP2;ratioP2;P2;SDS_P1;SDS_P2;PMS_P1;PMS_P2;Temp;Humidity;BMP_temperature;BMP_pressure;BME280_temperature;BME280_humidity;BME280_pressure;Samples;Min_cycle;Max_cycle;Signal;HPM_P1;HPM_P2
2022/12/05 00:01:57;;;;;;;;;;;;;;;25.33;42.33;93941.63;4970690;28;7033;-62
2022/12/05 00:04:24;;;;;;;;;;;;;;;25.34;42.06;93948.63;4974093;28;7034;-62
2022/12/05 00:07:19;;;;;;;;;;;;;;;25.34;42.33;93962.38;4957440;28;8756;-62
2022/12/05 00:09:45;;;;;;;;;;;;;;;25.32;42.53;93981.44;4892592;29;7265;-62
2022/12/05 00:12:24;;;;;;;;;;;;;;;25.33;42.10;93991.19;4901440;29;7322;-62
2022/12/05 00:14:53;;;;;;;;;;;;;;;25.34;41.95;93987.16;4926875;29;7212;-62
2022/12/05 00:17:19;;;;;;;;;;;;;;;25.34;41.54;93990.66;4931753;29;7233;-62
2022/12/05 00:19:45;;;;;;;;;;;;;;;25.34;41.93;94000.91;4922204;29;9077;-62
2022/12/05 00:22:17;;;;;;;;;;;;;;;25.30;41.99;93997.72;4930479;29;10321;-61
2022/12/05 00:24:50;;;;;;;;;;;;;;;25.33;42.54;94000.19;4932880;29;9324;-62
2022/12/05 00:27:25;;;;;;;;;;;;;;;25.33;42.13;94007.72;4934754;28;7268;-62
2022/12/05 00:30:01;;;;;;;;;;;;;;;25.34;42.41;94022.94;4935075;29;7212;-62
2022/12/05 00:32:28;;;;;;;;;;;;;;;25.31;41.99;94024.75;4933215;28;7285;-62
2022/12/05 00:35:08;;;;;;;;;;;;;;;25.32;42.21;94022.72;4927241;28;9327;-62
2022/12/05 00:37:35;;;;;;;;;;;;;;;25.32;41.77;94020.72;4928336;29;7212;-62
2022/12/05 00:40:03;;;;;;;;;;;;;;;25.32;41.70;94028.22;4922677;29;7119;-61
2022/12/05 00:42:29;;;;;;;;;;;;;;;25.33;42.12;94035.22;4922550;29;7172;-62
2022/12/05 00:44:58;;;;;;;;;;;;;;;25.33;42.47;94026.97;4910533;29;7251;-62
2022/12/05 00:47:34;;;;;;;;;;;;;;;25.32;42.29;94020.72;5004432;28;7484;-62
2022/12/05 00:50:04;;;;;;;;;;;;;;;25.32;41.97;94011.72;4989779;28;7040;-62
2022/12/05 00:52:32;;;;;;;;;;;;;;;25.34;41.74;94014.69;5001413;28;7502;-62
2022/12/05 00:54:58;;;;;;;;;;;;;;;25.32;42.21;94008.97;4986478;28;8520;-60
2022/12/05 00:57:24;;;;;;;;;;;;;;;25.31;41.78;94010.97;4982978;28;7033;-62
2022/12/05 00:59:53;;;;;;;;;;;;;;;25.32;42.39;94004.19;4982738;28;8953;-62
2022/12/05 01:02:19;;;;;;;;;;;;;;;25.32;42.16;94011.72;4986650;28;9050;-62
2022/12/05 01:04:46;;;;;;;;;;;;;;;25.33;42.21;94015.97;4987948;28;8220;-63
2022/12/05 01:07:13;;;;;;;;;;;;;;;25.32;41.65;94019.97;4982569;28;7487;-62
2022/12/05 01:09:40;;;;;;;;;;;;;;;25.32;42.09;94022.72;4980680;28;7886;-63
2022/12/05 01:12:09;;;;;;;;;;;;;;;25.30;41.90;94022.50;4983664;28;7046;-62
2022/12/05 01:14:44;;;;;;;;;;;;;;;25.32;42.16;94039.22;4990542;28;7671;-62
2022/12/05 01:17:13;;;;;;;;;;;;;;;25.31;41.86;94038.50;4987687;28;7074;-62
2022/12/05 01:19:48;;;;;;;;;;;;;;;25.32;42.07;94053.00;4980159;28;9495;-62
2022/12/05 01:22:23;;;;;;;;;;;;;;;25.31;42.13;94049.53;4993453;28;9325;-63
2022/12/05 01:24:51;;;;;;;;;;;;;;;25.33;41.64;94051.75;4967914;28;7776;-63
2022/12/05 01:27:28;;;;;;;;;;;;;;;25.33;42.07;94057.25;4979603;28;9179;-63
2022/12/05 01:29:56;;;;;;;;;;;;;;;25.34;41.88;94050.47;4984748;28;9032;-62
2022/12/05 01:32:34;;;;;;;;;;;;;;;25.34;42.39;94064.25;5009242;28;7045;-63
2022/12/05 01:35:29;;;;;;;;;;;;;;;25.34;42.14;94069.75;4993676;28;7046;-63
2022/12/05 01:38:11;;;;;;;;;;;;;;;25.34;41.77;94072.50;5005129;28;7048;-62
2022/12/05 01:40:40;;;;;;;;;;;;;;;25.34;42.22;94075.25;4984335;28;7029;-62
2022/12/05 01:43:17;;;;;;;;;;;;;;;25.34;41.89;94075.25;4974816;28;7270;-63
2022/12/05 01:45:57;;;;;;;;;;;;;;;25.33;41.98;94071.78;4990780;28;7026;-61
2022/12/05 01:48:32;;;;;;;;;;;;;;;25.34;41.61;94067.75;4986244;28;8245;-62
2022/12/05 01:51:02;;;;;;;;;;;;;;;25.33;42.17;94069.03;4986762;28;7464;-62
2022/12/05 01:53:28;;;;;;;;;;;;;;;25.32;41.69;94072.28;4994694;28;8728;-61
2022/12/05 01:55:58;;;;;;;;;;;;;;;25.32;41.78;94066.75;4985765;28;7279;-62
2022/12/05 01:58:32;;;;;;;;;;;;;;;25.33;41.54;94052.50;4990648;28;7605;-62
2022/12/05 02:00:58;;;;;;;;;;;;;;;25.34;41.52;94061.50;4978455;28;7275;-62
2022/12/05 02:03:30;;;;;;;;;;;;;;;25.33;41.70;94062.75;4990324;28;7200;-61
2022/12/05 02:05:58;;;;;;;;;;;;;;;25.34;41.89;94061.50;4982118;28;9700;-62
2022/12/05 02:08:26;;;;;;;;;;;;;;;25.33;41.74;94062.75;4995978;28;7326;-62
2022/12/05 02:10:56;;;;;;;;;;;;;;;25.32;42.03;94055.75;4979688;28;7271;-63
2022/12/05 02:13:37;;;;;;;;;;;;;;;25.35;42.39;94060.25;4988635;28;8774;-62
2022/12/05 02:16:26;;;;;;;;;;;;;;;25.33;42.15;94060.75;4992968;28;8978;-62
2022/12/05 02:19:29;;;;;;;;;;;;;;;25.34;42.35;94053.97;4979371;28;8137;-62
2022/12/05 02:22:03;;;;;;;;;;;;;;;25.33;42.20;94049.75;5001304;28;9367;-62
2022/12/05 02:24:32;;;;;;;;;;;;;;;25.34;41.43;94059.47;4993548;28;7290;-63
2022/12/05 02:27:28;;;;;;;;;;;;;;;25.34;42.47;94053.97;4985179;28;9223;-62
2022/12/05 02:30:06;;;;;;;;;;;;;;;25.33;41.93;94051.75;4999039;28;7271;-62
2022/12/05 02:33:00;;;;;;;;;;;;;;;25.34;42.28;94044.97;4986157;28;7472;-62
2022/12/05 02:35:41;;;;;;;;;;;;;;;25.33;41.62;94049.00;4982278;28;8755;-62
2022/12/05 02:38:26;;;;;;;;;;;;;;;25.35;41.41;94055.47;5004598;28;7335;-62
2022/12/05 02:40:55;;;;;;;;;;;;;;;25.34;42.01;94058.72;4982357;28;7139;-62
2022/12/05 02:43:29;;;;;;;;;;;;;;;25.33;41.95;94063.50;4989095;28;8333;-62
2022/12/05 02:46:03;;;;;;;;;;;;;;;25.33;41.98;94060.00;4987252;28;7230;-62
2022/12/05 02:48:38;;;;;;;;;;;;;;;25.32;41.92;94056.50;4987560;28;7370;-62
2022/12/05 02:51:11;;;;;;;;;;;;;;;25.32;41.65;94064.00;4979898;28;9289;-61
2022/12/05 02:53:41;;;;;;;;;;;;;;;25.32;41.71;94050.25;4972611;28;8978;-61
2022/12/05 02:56:33;;;;;;;;;;;;;;;25.32;42.09;94044.75;5000153;28;7107;-62
2022/12/05 02:59:02;;;;;;;;;;;;;;;25.32;41.98;94042.00;4991807;28;7272;-62
2022/12/05 03:01:36;;;;;;;;;;;;;;;25.32;42.09;94044.75;4985078;28;7097;-62
2022/12/05 03:04:07;;;;;;;;;;;;;;;25.33;42.25;94046.25;4988298;28;7017;-62
2022/12/05 03:07:11;;;;;;;;;;;;;;;25.32;41.64;94051.00;4978647;28;7448;-62
2022/12/05 03:10:03;;;;;;;;;;;;;;;25.31;42.38;94044.03;4948124;28;8718;-62
2022/12/05 03:12:38;;;;;;;;;;;;;;;25.29;42.40;94041.00;4928470;28;7162;-62
2022/12/05 03:15:07;;;;;;;;;;;;;;;25.29;41.64;94051.28;4952826;28;8256;-62
2022/12/05 03:17:51;;;;;;;;;;;;;;;25.29;41.88;94051.28;4935831;28;7027;-63
2022/12/05 03:20:39;;;;;;;;;;;;;;;25.30;42.50;94059.03;4933259;29;7037;-63
2022/12/05 03:23:32;;;;;;;;;;;;;;;25.30;42.44;94059.03;4929074;28;7859;-62
2022/12/05 03:26:11;;;;;;;;;;;;;;;25.31;41.91;94057.03;4938266;29;7845;-63
2022/12/05 03:29:14;;;;;;;;;;;;;;;25.31;41.45;94059.78;4934176;29;7134;-63
2022/12/05 03:32:09;;;;;;;;;;;;;;;25.30;42.33;94061.78;4934231;29;7274;-62
2022/12/05 03:35:26;;;;;;;;;;;;;;;25.30;41.53;94067.28;4942435;28;7601;-62
2022/12/05 03:38:16;;;;;;;;;;;;;;;25.28;41.61;94056.06;4879128;29;7393;-62
2022/12/05 03:41:06;;;;;;;;;;;;;;;25.29;42.38;94057.53;4892608;29;9292;-63
2022/12/05 03:44:01;;;;;;;;;;;;;;;25.30;41.42;94066.53;4877872;29;9460;-63
2022/12/05 03:46:50;;;;;;;;;;;;;;;25.33;41.82;94076.53;4898476;29;7061;-63
2022/12/05 03:49:21;;;;;;;;;;;;;;;25.31;41.50;94082.56;4906905;29;7271;-63
2022/12/05 03:52:11;;;;;;;;;;;;;;;25.32;41.68;94080.53;4891531;29;7533;-62
2022/12/05 03:55:12;;;;;;;;;;;;;;;25.30;42.25;94080.31;4905297;29;7233;-62
2022/12/05 03:57:57;;;;;;;;;;;;;;;25.31;42.01;94081.81;4819894;29;7311;-63
2022/12/05 04:00:56;;;;;;;;;;;;;;;25.33;41.44;94084.78;4825164;29;9314;-63
2022/12/05 04:03:38;;;;;;;;;;;;;;;25.32;41.94;94080.53;4788062;29;8722;-63
2022/12/05 04:06:17;;;;;;;;;;;;;;;25.32;41.81;94088.78;4787851;29;7069;-63
2022/12/05 04:09:16;;;;;;;;;;;;;;;25.32;41.37;94088.78;4804489;29;7001;-62
2022/12/05 04:12:02;;;;;;;;;;;;;;;25.32;41.69;94088.78;4791216;29;7132;-62
2022/12/05 04:14:47;;;;;;;;;;;;;;;25.33;41.98;94084.78;4858224;29;9379;-63
2022/12/05 04:17:33;;;;;;;;;;;;;;;25.33;41.29;94098.56;4875351;29;7605;-63
2022/12/05 04:23:21;;;;;;;;;;;;;;;25.32;41.57;94097.81;4868636;29;7032;-63
2022/12/05 04:26:27;;;;;;;;;;;;;;;25.33;41.80;94101.31;4877812;29;7260;-63
2022/12/05 04:29:28;;;;;;;;;;;;;;;25.32;41.66;94108.06;4875516;29;7076;-62
2022/12/05 04:32:24;;;;;;;;;;;;;;;25.31;41.35;94101.81;4874963;29;7361;-62
2022/12/05 04:34:57;;;;;;;;;;;;;;;25.31;41.37;94110.09;4922653;28;7449;-63
2022/12/05 04:37:44;;;;;;;;;;;;;;;25.32;41.71;94119.06;4940914;28;9072;-63
2022/12/05 04:40:32;;;;;;;;;;;;;;;25.32;42.00;94110.81;4970670;28;9175;-63
2022/12/05 04:43:05;;;;;;;;;;;;;;;25.33;41.35;94109.56;4988872;28;7025;-62
2022/12/05 04:46:11;;;;;;;;;;;;;;;25.33;42.33;94112.31;4980682;28;9666;-63
2022/12/05 04:48:47;;;;;;;;;;;;;;;25.33;42.07;94117.81;4990878;28;7007;-63
2022/12/05 04:51:22;;;;;;;;;;;;;;;25.32;41.78;94114.31;4978798;28;7325;-63
2022/12/05 04:53:55;;;;;;;;;;;;;;;25.33;42.25;94123.31;4984355;28;10476;-63
2022/12/05 04:56:29;;;;;;;;;;;;;;;25.32;41.70;94130.09;4982181;28;9070;-63
2022/12/05 04:58:56;;;;;;;;;;;;;;;25.33;41.53;94137.09;4987832;28;8635;-64
2022/12/05 05:01:32;;;;;;;;;;;;;;;25.31;41.45;94140.38;4992780;28;7575;-64
2022/12/05 05:04:13;;;;;;;;;;;;;;;25.31;41.55;94134.88;4985271;28;7845;-62
2022/12/05 05:06:43;;;;;;;;;;;;;;;25.32;42.26;94136.34;4988845;28;7098;-64
2022/12/05 05:09:11;;;;;;;;;;;;;;;25.31;42.34;94137.63;4988469;28;9080;-63
2022/12/05 05:11:37;;;;;;;;;;;;;;;25.30;41.53;94147.13;4987760;28;8127;-63
2022/12/05 05:14:04;;;;;;;;;;;;;;;25.31;41.83;94156.13;4981740;28;7661;-62
2022/12/05 05:16:57;;;;;;;;;;;;;;;25.31;42.33;94150.63;4983376;28;7392;-63
2022/12/05 05:19:24;;;;;;;;;;;;;;;25.32;41.91;94155.59;4935747;28;8877;-63
2022/12/05 05:21:51;;;;;;;;;;;;;;;25.30;41.59;94149.88;4944364;28;7048;-62
2022/12/05 05:24:25;;;;;;;;;;;;;;;25.31;41.77;94137.63;4939223;28;7097;-62
2022/12/05 05:26:52;;;;;;;;;;;;;;;25.31;42.17;94131.34;4949564;28;7086;-62
2022/12/05 05:29:18;;;;;;;;;;;;;;;25.31;42.27;94139.63;4942831;28;7270;-62
2022/12/05 05:31:53;;;;;;;;;;;;;;;25.31;41.89;94142.38;4929793;28;7154;-63
2022/12/05 05:34:21;;;;;;;;;;;;;;;25.29;41.78;94134.59;4944874;28;7132;-62
2022/12/05 05:36:50;;;;;;;;;;;;;;;25.30;42.06;94141.63;4927315;28;7638;-63
2022/12/05 05:39:18;;;;;;;;;;;;;;;25.33;41.88;94151.59;4933342;28;7128;-63
2022/12/05 05:41:46;;;;;;;;;;;;;;;25.33;42.75;94156.38;4931489;28;7358;-62
2022/12/05 05:44:24;;;;;;;;;;;;;;;25.37;43.19;94163.09;4948420;28;7910;-63
2022/12/05 05:47:00;;;;;;;;;;;;;;;25.43;43.38;94160.28;4935201;28;7290;-63
2022/12/05 05:49:26;;;;;;;;;;;;;;;25.46;43.60;94155.75;4950087;28;7047;-63
2022/12/05 05:51:51;;;;;;;;;;;;;;;25.49;43.25;94163.72;4934607;28;8984;-62
2022/12/05 05:54:17;;;;;;;;;;;;;;;25.50;42.36;94162.47;4925618;28;7285;-63
2022/12/05 05:56:43;;;;;;;;;;;;;;;25.50;42.92;94173.50;4970089;28;7040;-62
2022/12/05 05:59:09;;;;;;;;;;;;;;;25.50;43.45;94170.75;4989403;28;7132;-63
2022/12/05 06:01:44;;;;;;;;;;;;;;;25.50;42.58;94170.75;4983288;28;9425;-63
2022/12/05 06:04:22;;;;;;;;;;;;;;;25.48;42.88;94173.28;4983465;28;7056;-61
2022/12/05 06:06:53;;;;;;;;;;;;;;;25.48;42.38;94178.78;4973789;28;7517;-60
2022/12/05 06:09:21;;;;;;;;;;;;;;;25.52;42.17;94170.22;4985389;28;8356;-61
2022/12/05 06:11:51;;;;;;;;;;;;;;;25.52;42.67;94167.47;4985883;28;7317;-60
2022/12/05 06:14:20;;;;;;;;;;;;;;;25.55;42.75;94163.69;4982058;28;7330;-61
2022/12/05 06:16:51;;;;;;;;;;;;;;;25.55;42.35;94169.94;5003849;28;7310;-61
2022/12/05 06:19:21;;;;;;;;;;;;;;;25.55;42.34;94169.19;4999557;28;7037;-60
2022/12/05 06:21:50;;;;;;;;;;;;;;;25.58;42.07;94179.19;4981298;28;7289;-60
2022/12/05 06:24:54;;;;;;;;;;;;;;;25.55;42.43;94183.72;4979477;28;7295;-60
2022/12/05 06:27:31;;;;;;;;;;;;;;;25.55;42.25;94188.47;4936993;28;7442;-61
2022/12/05 06:30:07;;;;;;;;;;;;;;;25.50;42.61;94181.75;4954507;28;7050;-60
2022/12/05 06:32:48;;;;;;;;;;;;;;;25.48;42.61;94192.53;4936019;28;8296;-60
2022/12/05 06:35:24;;;;;;;;;;;;;;;25.46;42.58;94178.53;4952486;28;7035;-60
2022/12/05 06:37:52;;;;;;;;;;;;;;;25.48;42.44;94169.75;4952535;28;7444;-60
2022/12/05 06:40:20;;;;;;;;;;;;;;;25.49;42.35;94168.50;4951715;28;9482;-60
2022/12/05 06:42:59;;;;;;;;;;;;;;;25.50;41.79;94165.22;4931348;28;7245;-62
2022/12/05 06:45:25;;;;;;;;;;;;;;;25.51;42.48;94161.22;4936183;28;7278;-62
2022/12/05 06:47:52;;;;;;;;;;;;;;;25.55;41.61;94160.94;4951952;28;7896;-61
2022/12/05 06:50:27;;;;;;;;;;;;;;;25.56;41.99;94163.16;4950663;28;7121;-62
2022/12/05 06:52:53;;;;;;;;;;;;;;;25.51;41.89;94161.22;4946686;28;8983;-63
2022/12/05 06:55:21;;;;;;;;;;;;;;;25.54;42.54;94173.97;4949632;28;7094;-62
2022/12/05 06:57:47;;;;;;;;;;;;;;;25.56;42.30;94176.19;4962529;28;8533;-62
2022/12/05 07:03:09;;;;;;;;;;;;;;;25.59;42.17;94183.44;4986667;28;6992;-62
2022/12/05 07:05:38;;;;;;;;;;;;;;;25.58;41.84;94177.16;4985748;28;8882;-62
2022/12/05 07:08:08;;;;;;;;;;;;;;;25.57;42.39;94188.72;4980150;28;8632;-61
2022/12/05 07:10:51;;;;;;;;;;;;;;;25.57;41.74;94196.97;4999908;28;9019;-62
2022/12/05 07:13:24;;;;;;;;;;;;;;;25.59;42.21;94200.72;4983260;28;7255;-62
2022/12/05 07:16:01;;;;;;;;;;;;;;;25.59;42.32;94200.72;4978929;28;7276;-63
2022/12/05 07:18:27;;;;;;;;;;;;;;;25.60;42.14;94202.19;4985290;28;7317;-62
2022/12/05 07:21:01;;;;;;;;;;;;;;;25.60;42.36;94204.22;4977005;28;9006;-61
2022/12/05 07:23:45;;;;;;;;;;;;;;;25.59;42.30;94199.94;5004729;28;7390;-62
2022/12/05 07:26:36;;;;;;;;;;;;;;;25.56;42.50;94196.22;4999057;28;7333;-62
2022/12/05 07:29:03;;;;;;;;;;;;;;;25.53;42.20;94191.75;4991831;28;7277;-61
2022/12/05 07:31:35;;;;;;;;;;;;;;;25.50;42.70;94192.78;4987540;28;7303;-62
2022/12/05 07:34:05;;;;;;;;;;;;;;;25.50;42.19;94208.53;4985716;28;9164;-62
2022/12/05 07:36:38;;;;;;;;;;;;;;;25.54;42.39;94214.50;4991259;28;9668;-62
2022/12/05 07:39:04;;;;;;;;;;;;;;;25.54;41.98;94231.03;4986646;28;7501;-61
2022/12/05 07:41:48;;;;;;;;;;;;;;;25.55;42.80;94238.81;4974453;28;7030;-61
2022/12/05 07:44:23;;;;;;;;;;;;;;;25.53;42.10;94241.31;4982644;28;7061;-62
2022/12/05 07:47:12;;;;;;;;;;;;;;;25.53;42.87;94246.84;4991862;28;9618;-62
2022/12/05 07:49:39;;;;;;;;;;;;;;;25.49;42.52;94246.34;4989043;28;7276;-62
2022/12/05 07:52:19;;;;;;;;;;;;;;;25.52;42.44;94241.81;4998343;28;7219;-62
2022/12/05 07:54:47;;;;;;;;;;;;;;;25.51;42.11;94227.31;4989391;28;7285;-62
2022/12/05 07:57:13;;;;;;;;;;;;;;;25.51;42.87;94234.84;4994276;28;7610;-62
2022/12/05 07:59:39;;;;;;;;;;;;;;;25.50;42.72;94236.09;4993387;28;7089;-62
2022/12/05 08:02:12;;;;;;;;;;;;;;;25.49;42.90;94235.31;4985100;28;7692;-63
2022/12/05 08:04:57;;;;;;;;;;;;;;;25.50;42.14;94247.09;4980720;28;7295;-63
2022/12/05 08:07:25;;;;;;;;;;;;;;;25.50;42.93;94244.34;4987383;28;7196;-62
2022/12/05 08:10:00;;;;;;;;;;;;;;;25.52;42.73;94250.06;4990692;28;9028;-63
2022/12/05 08:12:58;;;;;;;;;;;;;;;25.54;43.13;94255.81;4990409;28;8299;-63
2022/12/05 08:15:42;;;;;;;;;;;;;;;25.54;43.12;94256.56;4900916;29;7177;-63
2022/12/05 08:18:08;;;;;;;;;;;;;;;25.51;42.75;94248.59;4914682;29;8014;-62
2022/12/05 08:20:43;;;;;;;;;;;;;;;25.52;42.34;94250.84;4902034;29;7381;-62
2022/12/05 08:23:41;;;;;;;;;;;;;;;25.55;42.01;94249.81;4914212;29;9063;-63
2022/12/05 08:26:26;;;;;;;;;;;;;;;25.53;42.53;94246.84;4899757;29;7548;-61
2022/12/05 08:29:17;;;;;;;;;;;;;;;25.56;42.53;94256.81;4901506;29;7042;-63
2022/12/05 08:31:52;;;;;;;;;;;;;;;25.54;42.51;94269.59;4916622;29;7804;-63
2022/12/05 08:34:28;;;;;;;;;;;;;;;25.51;42.37;94268.63;4916042;29;9265;-63
2022/12/05 08:37:04;;;;;;;;;;;;;;;25.50;43.00;94264.38;4900787;29;7040;-63
2022/12/05 08:39:32;;;;;;;;;;;;;;;25.45;42.40;94278.91;4914979;29;7732;-62
2022/12/05 08:42:00;;;;;;;;;;;;;;;25.46;42.50;94283.19;4918507;29;7358;-62
2022/12/05 08:44:30;;;;;;;;;;;;;;;25.43;42.60;94286.94;4899064;29;7309;-62
2022/12/05 08:47:05;;;;;;;;;;;;;;;25.43;42.77;94298.72;4900892;29;7876;-63
2022/12/05 08:49:39;;;;;;;;;;;;;;;25.44;42.46;94299.47;4914696;29;7183;-63
2022/12/05 08:52:16;;;;;;;;;;;;;;;25.42;42.52;94294.47;4952568;28;7767;-63
2022/12/05 08:54:42;;;;;;;;;;;;;;;25.44;42.77;94293.97;4983753;28;7389;-62
2022/12/05 08:57:08;;;;;;;;;;;;;;;25.45;42.57;94291.97;4990890;28;6988;-62
2022/12/05 08:59:36;;;;;;;;;;;;;;;25.47;43.26;94287.41;4993775;28;8460;-62
2022/12/05 09:02:07;;;;;;;;;;;;;;;25.47;43.02;94290.16;4988408;28;7608;-61
2022/12/05 09:04:52;;;;;;;;;;;;;;;25.50;42.28;94296.66;4986717;28;8853;-61
2022/12/05 09:07:25;;;;;;;;;;;;;;;25.48;42.30;94291.69;4992392;28;8512;-62
2022/12/05 09:09:54;;;;;;;;;;;;;;;25.51;42.49;94287.16;4992459;28;7479;-63
2022/12/05 09:12:46;;;;;;;;;;;;;;;25.50;42.20;94294.66;4995522;28;7218;-61
2022/12/05 09:15:21;;;;;;;;;;;;;;;25.51;42.77;94287.91;4981972;28;7286;-62
2022/12/05 09:18:00;;;;;;;;;;;;;;;25.52;42.96;94275.63;4983189;28;7314;-61
2022/12/05 09:20:47;;;;;;;;;;;;;;;25.54;42.54;94289.63;4978797;28;7236;-62
2022/12/05 09:23:24;;;;;;;;;;;;;;;25.53;42.47;94290.91;4987842;28;7271;-62
2022/12/05 09:26:02;;;;;;;;;;;;;;;25.54;42.90;94299.88;4988939;28;7338;-62
2022/12/05 09:29:00;;;;;;;;;;;;;;;25.55;43.11;94309.66;5002143;28;7218;-62
2022/12/05 09:31:35;;;;;;;;;;;;;;;25.54;42.35;94319.91;4937457;28;7036;-62
2022/12/05 09:34:48;;;;;;;;;;;;;;;25.55;42.11;94323.41;4937124;28;7465;-61
2022/12/05 09:37:14;;;;;;;;;;;;;;;25.52;42.52;94316.94;4895439;29;7114;-62
2022/12/05 09:39:43;;;;;;;;;;;;;;;25.56;42.17;94314.63;4872796;29;7023;-62
2022/12/05 09:42:27;;;;;;;;;;;;;;;25.54;42.60;94314.41;4891338;29;7413;-61
2022/12/05 09:45:30;;;;;;;;;;;;;;;25.57;42.98;94313.41;4895744;29;9018;-62
2022/12/05 09:48:18;;;;;;;;;;;;;;;25.56;42.42;94317.41;4889181;29;7270;-62
2022/12/05 09:50:53;;;;;;;;;;;;;;;25.56;42.43;94314.63;4893222;29;7276;-62
2022/12/05 09:53:37;;;;;;;;;;;;;;;25.55;42.87;94332.44;4869963;29;7052;-60
2022/12/05 09:56:12;;;;;;;;;;;;;;;25.56;42.72;94314.63;4891586;29;7121;-61
2022/12/05 09:58:43;;;;;;;;;;;;;;;25.58;42.92;94320.38;4887519;29;9322;-61
2022/12/05 10:01:26;;;;;;;;;;;;;;;25.59;43.05;94321.88;4875377;29;7260;-62
2022/12/05 10:04:04;;;;;;;;;;;;;;;25.60;42.27;94317.84;4894448;29;7054;-62
2022/12/05 10:06:42;;;;;;;;;;;;;;;25.58;42.19;94312.13;4894870;29;7246;-62
2022/12/05 10:09:18;;;;;;;;;;;;;;;25.58;43.17;94314.16;4946566;28;9109;-62
2022/12/05 10:12:10;;;;;;;;;;;;;;;25.58;42.64;94305.88;4929177;28;7512;-63
2022/12/05 10:15:00;;;;;;;;;;;;;;;25.57;42.58;94302.38;4968558;28;7234;-62
2022/12/05 10:17:32;;;;;;;;;;;;;;;25.56;42.63;94300.88;4986946;28;9398;-62
2022/12/05 10:20:13;;;;;;;;;;;;;;;25.56;42.41;94295.34;4985642;28;8189;-61
2022/12/05 10:22:43;;;;;;;;;;;;;;;25.59;42.04;94296.34;4989064;28;7806;-61
2022/12/05 10:25:17;;;;;;;;;;;;;;;25.57;43.05;94296.88;4985153;28;7209;-62
2022/12/05 10:27:52;;;;;;;;;;;;;;;25.59;42.88;94294.34;4987534;28;7298;-61
2022/12/05 10:30:22;;;;;;;;;;;;;;;25.59;42.85;94304.59;4989764;28;7401;-63
2022/12/05 10:32:53;;;;;;;;;;;;;;;25.60;42.23;94311.63;4985805;28;7130;-63
2022/12/05 10:35:41;;;;;;;;;;;;;;;25.60;42.85;94317.84;4984666;28;9450;-62
2022/12/05 10:38:28;;;;;;;;;;;;;;;25.63;41.85;94313.34;4981396;28;7120;-62
2022/12/05 10:41:02;;;;;;;;;;;;;;;25.62;42.03;94298.81;4987153;28;7055;-62
2022/12/05 10:43:36;;;;;;;;;;;;;;;25.61;41.91;94299.34;4984866;28;7208;-63
2022/12/05 10:46:03;;;;;;;;;;;;;;;25.61;41.28;94302.09;4987624;28;9596;-61
2022/12/05 10:48:36;;;;;;;;;;;;;;;25.63;42.19;94294.06;4983961;28;7348;-62
2022/12/05 10:51:04;;;;;;;;;;;;;;;25.62;42.17;94301.56;4981016;28;9392;-68
2022/12/05 10:53:43;;;;;;;;;;;;;;;25.60;41.95;94301.34;4997461;28;7026;-62
2022/12/05 10:56:39;;;;;;;;;;;;;;;25.61;42.08;94302.84;4993265;28;7248;-62
2022/12/05 10:59:07;;;;;;;;;;;;;;;25.61;41.51;94305.59;4904941;29;7135;-63
2022/12/05 11:02:01;;;;;;;;;;;;;;;25.61;41.84;94302.09;4915219;29;8085;-62
2022/12/05 11:04:42;;;;;;;;;;;;;;;25.61;41.43;94308.34;4912064;29;7392;-63
2022/12/05 11:07:29;;;;;;;;;;;;;;;25.61;41.37;94305.59;4916283;29;7267;-63
2022/12/05 11:10:02;;;;;;;;;;;;;;;25.59;41.84;94305.38;4924479;29;7386;-63
2022/12/05 11:12:40;;;;;;;;;;;;;;;25.62;41.67;94306.34;4907795;29;7433;-62
2022/12/05 11:15:33;;;;;;;;;;;;;;;25.60;42.06;94309.59;4914358;29;7131;-62
2022/12/05 11:18:25;;;;;;;;;;;;;;;25.58;42.14;94309.38;4924972;29;9942;-61
2022/12/05 11:20:51;;;;;;;;;;;;;;;25.61;42.30;94313.09;4930029;28;7251;-63
2022/12/05 11:23:31;;;;;;;;;;;;;;;25.59;41.43;94307.38;4905707;29;7353;-61
2022/12/05 11:26:35;;;;;;;;;;;;;;;25.60;41.51;94303.38;4907354;29;9122;-63
2022/12/05 11:29:31;;;;;;;;;;;;;;;25.60;42.55;94306.84;4906731;29;7024;-61
2022/12/05 11:32:01;;;;;;;;;;;;;;;25.59;42.61;94299.09;4921683;29;7230;-62
2022/12/05 11:35:12;;;;;;;;;;;;;;;25.58;42.06;94301.09;4912616;29;7324;-62
2022/12/05 11:38:03;;;;;;;;;;;;;;;25.61;41.86;94302.84;4930770;29;7018;-62
2022/12/05 11:41:09;;;;;;;;;;;;;;;25.63;42.77;94294.81;4914960;29;8353;-62
2022/12/05 11:43:58;;;;;;;;;;;;;;;25.63;42.43;94292.06;4905391;29;7304;-62
2022/12/05 11:46:42;;;;;;;;;;;;;;;25.64;42.53;94285.31;4910255;29;7191;-62
2022/12/05 11:49:45;;;;;;;;;;;;;;;25.65;41.80;94284.03;4893651;29;7265;-63
2022/12/05 11:52:26;;;;;;;;;;;;;;;25.65;42.48;94281.28;4910650;29;10396;-63
2022/12/05 11:55:01;;;;;;;;;;;;;;;25.67;41.91;94286.25;4899348;29;9092;-62
2022/12/05 11:57:32;;;;;;;;;;;;;;;25.67;42.82;94283.50;4906478;29;7284;-62
2022/12/05 12:00:04;;;;;;;;;;;;;;;25.66;42.29;94287.53;4899654;29;7255;-62
2022/12/05 12:03:08;;;;;;;;;;;;;;;25.68;41.95;94285.00;4905075;29;7217;-62
2022/12/05 12:06:11;;;;;;;;;;;;;;;25.67;42.66;94283.50;4903738;29;6861;-63
2022/12/05 12:09:23;;;;;;;;;;;;;;;25.70;42.84;94283.25;4895343;29;7236;-62
2022/12/05 12:12:24;;;;;;;;;;;;;;;25.70;42.77;94269.47;4905047;29;7273;-62
2022/12/05 12:14:58;;;;;;;;;;;;;;;25.70;42.16;94277.72;4909657;29;9342;-62
2022/12/05 12:17:43;;;;;;;;;;;;;;;25.71;42.56;94272.97;4899675;29;7362;-62
2022/12/05 12:20:33;;;;;;;;;;;;;;;25.73;42.95;94270.44;4951777;28;9662;-62
2022/12/05 12:23:29;;;;;;;;;;;;;;;25.70;42.20;94271.47;4986769;28;8815;-61
2022/12/05 12:26:27;;;;;;;;;;;;;;;25.72;41.96;94274.44;4999841;28;9037;-62
2022/12/05 12:29:30;;;;;;;;;;;;;;;25.73;42.15;94275.97;4936208;28;8908;-62
2022/12/05 12:32:22;;;;;;;;;;;;;;;25.75;42.71;94268.66;4933622;29;7396;-62
2022/12/05 12:35:27;;;;;;;;;;;;;;;25.75;42.20;94274.16;4912660;29;7218;-62
2022/12/05 12:38:11;;;;;;;;;;;;;;;25.78;42.79;94278.66;4931829;29;7065;-62
2022/12/05 12:41:08;;;;;;;;;;;;;;;25.79;42.86;94280.16;4931996;28;7598;-61
2022/12/05 12:44:06;;;;;;;;;;;;;;;25.77;43.01;94277.16;4921140;29;7631;-63
2022/12/05 12:47:00;;;;;;;;;;;;;;;25.78;42.65;94266.88;4933480;29;7327;-62
2022/12/05 12:50:10;;;;;;;;;;;;;;;25.79;42.46;94266.38;4915630;29;7319;-63
2022/12/05 12:53:08;;;;;;;;;;;;;;;25.79;42.73;94274.66;4930390;29;7343;-62
2022/12/05 12:56:13;;;;;;;;;;;;;;;25.78;42.86;94273.13;4933575;29;7524;-62
2022/12/05 12:58:57;;;;;;;;;;;;;;;25.78;42.44;94277.91;4877984;29;9459;-62
2022/12/05 13:02:00;;;;;;;;;;;;;;;25.76;42.05;94277.66;4897376;29;7818;-62
2022/12/05 13:05:00;;;;;;;;;;;;;;;25.75;42.63;94274.16;4881551;29;7054;-62
2022/12/05 13:07:58;;;;;;;;;;;;;;;25.74;42.47;94260.91;4950966;28;7354;-61
2022/12/05 13:10:46;;;;;;;;;;;;;;;25.73;42.13;94260.16;4949734;28;9438;-61
2022/12/05 13:13:23;;;;;;;;;;;;;;;25.75;42.43;94259.66;4934637;28;7155;-61
2022/12/05 13:16:04;;;;;;;;;;;;;;;25.75;42.70;94267.94;4943955;28;7082;-62
2022/12/05 13:18:36;;;;;;;;;;;;;;;25.76;43.05;94261.13;4935360;28;7180;-62
2022/12/05 13:21:07;;;;;;;;;;;;;;;25.74;43.02;94269.94;4947787;28;7016;-61
2022/12/05 13:24:11;;;;;;;;;;;;;;;25.73;42.25;94268.41;4950587;28;7518;-62
2022/12/05 13:26:47;;;;;;;;;;;;;;;25.73;42.37;94268.41;4896258;29;9457;-62
2022/12/05 13:29:29;;;;;;;;;;;;;;;25.74;42.27;94280.94;4895129;29;7038;-61
2022/12/05 13:32:28;;;;;;;;;;;;;;;25.73;42.43;94268.41;4885245;29;8760;-61
2022/12/05 13:35:07;;;;;;;;;;;;;;;25.74;41.96;94269.19;4881310;29;8234;-63
2022/12/05 13:43:54;;;;;;;;;;;;;;;25.78;42.92;94264.88;4919415;29;7902;-62
2022/12/05 13:46:30;;;;;;;;;;;;;;;25.77;42.60;94262.66;4924390;29;7259;-62
2022/12/05 13:49:27;;;;;;;;;;;;;;;25.77;42.85;94274.41;4924516;29;8180;-61
2022/12/05 13:52:07;;;;;;;;;;;;;;;25.78;42.59;94273.13;4875066;29;7444;-62
2022/12/05 13:54:47;;;;;;;;;;;;;;;25.75;43.14;94274.16;4891019;29;7630;-62
2022/12/05 13:57:40;;;;;;;;;;;;;;;25.76;42.64;94275.66;4878208;29;7085;-62
2022/12/05 14:00:08;;;;;;;;;;;;;;;25.76;42.78;94278.41;4907061;28;9051;-62
2022/12/05 14:02:44;;;;;;;;;;;;;;;25.77;42.21;94284.69;4930816;28;9425;-62
2022/12/05 14:05:17;;;;;;;;;;;;;;;25.76;42.30;94289.44;4934853;28;7117;-63
2022/12/05 14:07:49;;;;;;;;;;;;;;;25.75;42.45;94279.66;4939057;28;7687;-62
2022/12/05 14:10:36;;;;;;;;;;;;;;;25.73;42.27;94286.97;4942402;28;7659;-63
2022/12/05 14:13:15;;;;;;;;;;;;;;;25.75;43.22;94279.66;4887645;29;10268;-62